Time;durP1;ratioP1;P1;durP2;ratioP2;P2;SDS_P1;SDS_P2;PMS_P1;PMS_P2;Temp;Humidity;BMP_temperature;BMP_pressure;BME280_temperature;BME280_humidity;BME280_pressure;Samples;Min_cycle;Max_cycle;Signal;HPM_P1;HPM_P2
2023/01/24 00:00:32;;;;;;;21.13;18.88;;;;;;;0.02;100.00;97076.84;5106643;28;24449;-71
2023/01/24 00:02:58;;;;;;;21.58;18.67;;;;;;;0.12;100.00;97070.06;5101128;28;25009;-70
2023/01/24 00:05:25;;;;;;;20.10;18.00;;;;;;;0.40;100.00;97076.78;5099335;28;24448;-70
2023/01/24 00:07:51;;;;;;;20.67;18.60;;;;;;;0.16;100.00;97074.31;5098114;28;24476;-70
2023/01/24 00:10:18;;;;;;;20.05;17.95;;;;;;;0.27;100.00;97080.22;5085633;28;24438;-71
2023/01/24 00:12:45;;;;;;;20.13;18.13;;;;;;;0.29;100.00;97081.06;5098968;28;24803;-70
2023/01/24 00:15:12;;;;;;;19.50;17.33;;;;;;;0.25;100.00;97076.81;5101239;28;24441;-70
2023/01/24 00:17:38;;;;;;;20.15;18.10;;;;;;;0.19;100.00;97070.06;5101130;28;24446;-71
2023/01/24 00:20:06;;;;;;;21.02;18.75;;;;;;;0.22;100.00;97075.16;5096376;28;24764;-70
2023/01/24 00:22:32;;;;;;;19.70;17.70;;;;;;;-0.04;100.00;97075.16;5094995;28;24446;-71
2023/01/24 00:24:58;;;;;;;21.15;17.52;;;;;;;0.05;100.00;97073.47;5097319;28;24469;-70
2023/01/24 00:27:25;;;;;;;22.88;18.40;;;;;;;0.12;100.00;97081.09;5097052;28;24473;-70
2023/01/24 00:29:53;;;;;;;19.65;17.55;;;;;;;0.03;100.00;97075.16;5102992;28;24440;-71
2023/01/24 00:32:19;;;;;;;22.80;19.00;;;;;;;0.15;100.00;97082.78;5102570;28;24433;-71
2023/01/24 00:34:46;;;;;;;22.50;18.43;;;;;;;0.05;100.00;97074.31;5086221;28;24434;-70
2023/01/24 00:37:12;;;;;;;20.73;18.48;;;;;;;0.23;100.00;97069.19;5096682;28;24434;-70
2023/01/24 00:39:38;;;;;;;21.52;18.75;;;;;;;0.16;100.00;97069.19;5098019;28;24438;-71
2023/01/24 00:42:05;;;;;;;22.25;18.45;;;;;;;0.31;100.00;97058.97;5103445;28;24438;-70
2023/01/24 00:44:31;;;;;;;22.10;19.38;;;;;;;0.14;100.00;97055.59;5096901;28;24997;-70
2023/01/24 00:46:59;;;;;;;23.45;18.50;;;;;;;0.08;100.00;97064.13;5094280;28;25016;-70
2023/01/24 00:49:26;;;;;;;20.83;18.63;;;;;;;0.03;100.00;97055.63;5104124;28;24871;-70
2023/01/24 00:51:52;;;;;;;24.88;19.60;;;;;;;-0.05;100.00;97059.88;5094812;28;24831;-70
2023/01/24 00:54:19;;;;;;;22.20;19.02;;;;;;;-0.06;100.00;97065.81;5102072;28;24800;-70
2023/01/24 00:56:45;;;;;;;21.40;19.10;;;;;;;0.26;100.00;97065.81;5095220;28;24433;-71
2023/01/24 00:59:12;;;;;;;21.57;19.30;;;;;;;0.10;100.00;97072.59;5094797;28;24521;-71
2023/01/24 01:01:38;;;;;;;21.20;18.98;;;;;;;0.28;100.00;97076.81;5098932;28;24470;-71
2023/01/24 01:04:06;;;;;;;21.45;19.17;;;;;;;0.08;100.00;97076.84;5098095;28;24433;-70
2023/01/24 01:06:33;;;;;;;21.13;18.77;;;;;;;0.17;100.00;97076.00;5100163;28;24446;-70
2023/01/24 01:08:59;;;;;;;21.38;18.98;;;;;;;0.27;100.00;97076.84;5085860;28;24442;-70
2023/01/24 01:11:26;;;;;;;21.35;18.75;;;;;;;0.30;100.00;97076.81;5092265;28;24434;-70
2023/01/24 01:13:55;;;;;;;23.45;19.45;;;;;;;0.21;100.00;97091.25;5097000;28;24441;-70
2023/01/24 01:16:22;;;;;;;22.42;18.83;;;;;;;0.23;100.00;97087.03;5099420;28;25010;-71
2023/01/24 01:18:49;;;;;;;23.57;19.90;;;;;;;0.22;100.00;97085.34;5094539;28;24430;-70
2023/01/24 01:21:19;;;;;;;25.45;19.17;;;;;;;0.16;100.00;97089.59;5099727;28;24645;-70
2023/01/24 01:23:46;;;;;;;21.85;19.65;;;;;;;0.40;100.00;97101.44;5098724;28;24430;-70
2023/01/24 01:26:15;;;;;;;24.73;19.37;;;;;;;0.41;100.00;97095.50;5097945;28;24445;-71
2023/01/24 01:28:42;;;;;;;22.70;19.95;;;;;;;0.19;100.00;97095.53;5103020;28;24433;-71
2023/01/24 01:31:09;;;;;;;22.45;18.35;;;;;;;0.22;100.00;97092.97;5108557;28;24436;-70
2023/01/24 01:33:35;;;;;;;22.20;19.77;;;;;;;0.28;100.00;97092.09;5092708;28;24801;-70
2023/01/24 01:36:02;;;;;;;24.63;19.30;;;;;;;0.06;100.00;97098.91;5089961;28;24511;-70
2023/01/24 01:38:30;;;;;;;22.23;19.33;;;;;;;0.06;100.00;97101.47;5097059;28;24430;-70
2023/01/24 01:40:57;;;;;;;21.60;19.23;;;;;;;-0.11;100.00;97105.69;5102583;28;24475;-71
2023/01/24 01:43:25;;;;;;;29.53;20.00;;;;;;;-0.01;100.00;97100.59;5091324;28;24438;-70
2023/01/24 01:45:54;;;;;;;22.02;19.58;;;;;;;0.04;100.00;97105.72;5087822;28;24438;-70
2023/01/24 01:48:25;;;;;;;22.53;19.93;;;;;;;0.06;100.00;97106.56;5104019;28;24983;-71
2023/01/24 01:51:00;;;;;;;27.13;20.55;;;;;;;0.11;100.00;97107.44;5082538;28;24511;-70
2023/01/24 01:53:32;;;;;;;26.33;21.33;;;;;;;0.41;100.00;97108.25;5085637;28;24445;-70
2023/01/24 01:56:05;;;;;;;23.95;21.17;;;;;;;0.29;100.00;97106.53;5101770;28;24441;-71
2023/01/24 01:58:33;;;;;;;25.58;21.70;;;;;;;0.03;100.00;97100.63;5084996;28;24441;-70
2023/01/24 02:01:00;;;;;;;27.65;20.88;;;;;;;0.09;100.00;97110.81;5103014;28;24437;-70
2023/01/24 02:03:41;;;;;;;26.40;20.87;;;;;;;-0.02;100.00;97113.34;5095946;28;24461;-70
2023/01/24 02:06:38;;;;;;;26.10;21.27;;;;;;;0.13;100.00;97103.16;5101647;28;24999;-70
2023/01/24 02:09:09;;;;;;;24.58;21.20;;;;;;;0.19;100.00;97109.97;5080030;28;24438;-71
2023/01/24 02:11:40;;;;;;;27.00;22.27;;;;;;;-0.02;100.00;97104.00;5100786;28;24800;-71
2023/01/24 02:16:55;;;;;;;26.50;21.13;;;;;;;-0.07;100.00;97108.28;5068842;28;24428;-70
2023/01/24 02:19:40;;;;;;;25.42;21.88;;;;;;;0.15;100.00;97100.59;5087516;28;24442;-70
2023/01/24 02:22:14;;;;;;;25.67;21.15;;;;;;;0.08;100.00;97107.41;5093199;28;24437;-70
2023/01/24 02:24:50;;;;;;;24.42;21.85;;;;;;;0.13;100.00;97108.25;5093785;28;24441;-70
2023/01/24 02:27:18;;;;;;;24.42;21.88;;;;;;;0.17;100.00;97109.09;5097899;28;24453;-71
2023/01/24 02:29:44;;;;;;;23.90;21.25;;;;;;;0.13;100.00;97113.34;5093987;28;24448;-70
2023/01/24 02:32:12;;;;;;;24.90;21.58;;;;;;;0.20;100.00;97109.09;5103844;28;24433;-70
2023/01/24 02:34:39;;;;;;;25.27;21.40;;;;;;;0.11;100.00;97112.53;5094026;28;24442;-70
2023/01/24 02:37:11;;;;;;;24.40;21.45;;;;;;;-0.01;100.00;97108.25;5092824;28;24826;-70
2023/01/24 02:39:48;;;;;;;26.13;21.63;;;;;;;0.04;100.00;97102.31;5097114;28;24437;-71
2023/01/24 02:42:20;;;;;;;28.13;21.83;;;;;;;0.19;100.00;97118.47;5095048;28;24978;-70
2023/01/24 02:44:52;;;;;;;25.02;21.95;;;;;;;0.02;100.00;97115.06;5099613;28;25731;-70
2023/01/24 02:47:18;;;;;;;29.83;22.73;;;;;;;0.38;100.00;97121.00;5096372;28;24475;-70
2023/01/24 02:49:45;;;;;;;25.73;22.02;;;;;;;0.46;100.00;97124.38;5098969;28;24491;-70
2023/01/24 02:54:55;;;;;;;27.13;22.70;;;;;;;0.02;100.00;97122.69;5095458;28;24432;-70
2023/01/24 03:00:08;;;;;;;27.27;22.77;;;;;;;-0.03;100.00;97125.25;5094549;28;24440;-70
2023/01/24 03:02:35;;;;;;;26.42;22.45;;;;;;;-0.05;100.00;97126.94;5086907;28;24528;-70
2023/01/24 03:05:01;;;;;;;25.92;22.83;;;;;;;-0.02;100.00;97126.09;5101989;28;24437;-70
2023/01/24 03:07:41;;;;;;;25.17;22.05;;;;;;;-0.09;100.00;97129.47;5089880;28;24447;-70
2023/01/24 03:10:09;;;;;;;27.70;22.75;;;;;;;0.19;100.00;97123.56;5090741;28;24438;-70
2023/01/24 03:34:30;;;;;;;26.50;21.63;;;;;;;0.00;100.00;97119.31;5095454;28;24502;-71
2023/01/24 03:36:56;;;;;;;25.50;22.80;;;;;;;0.10;100.00;97128.63;5089750;28;24446;-71
2023/01/24 03:42:07;;;;;;;24.33;21.50;;;;;;;0.00;100.00;97126.97;5093613;28;24524;-70
2023/01/24 03:44:34;;;;;;;29.35;22.60;;;;;;;0.30;100.00;97125.22;5100902;28;24445;-71
2023/01/24 03:47:01;;;;;;;32.33;22.35;;;;;;;0.12;100.00;97131.19;5088483;28;24450;-70
2023/01/24 03:52:30;;;;;;;24.85;22.17;;;;;;;0.06;100.00;97129.47;5093864;28;24471;-70
2023/01/24 03:54:57;;;;;;;26.90;22.40;;;;;;;0.09;100.00;97133.75;5096989;28;24994;-70
2023/01/24 03:57:24;;;;;;;26.80;21.90;;;;;;;-0.05;100.00;97132.03;5083474;28;24809;-71
2023/01/24 03:59:52;;;;;;;27.75;21.77;;;;;;;0.06;100.00;97132.03;5100148;28;24457;-71
2023/01/24 04:02:21;;;;;;;29.10;22.92;;;;;;;-0.01;100.00;97137.97;5091715;28;24423;-71
2023/01/24 04:07:32;;;;;;;26.75;22.85;;;;;;;0.10;100.00;97131.19;5092295;28;24512;-71
2023/01/24 04:09:59;;;;;;;25.70;22.45;;;;;;;0.02;100.00;97134.59;5098480;28;24449;-71
2023/01/24 04:12:25;;;;;;;29.93;22.40;;;;;;;0.13;100.00;97138.81;5103898;28;24433;-70
2023/01/24 04:14:53;;;;;;;27.48;22.20;;;;;;;0.05;100.00;97140.53;5103192;28;24441;-71
2023/01/24 04:17:20;;;;;;;25.60;22.73;;;;;;;0.17;100.00;97135.44;5096995;28;24430;-71
2023/01/24 04:19:47;;;;;;;25.30;22.00;;;;;;;0.13;100.00;97141.38;5098134;28;24975;-70
2023/01/24 04:22:15;;;;;;;29.42;22.55;;;;;;;-0.11;100.00;97137.13;5099913;28;24429;-71
2023/01/24 04:24:41;;;;;;;24.08;21.50;;;;;;;-0.10;100.00;97136.28;5095840;28;24503;-71
2023/01/24 04:27:08;;;;;;;28.83;22.65;;;;;;;-0.20;100.00;97131.16;5092867;28;24441;-71
2023/01/24 04:29:34;;;;;;;29.05;21.83;;;;;;;0.00;100.00;97134.59;5098363;28;24429;-71
2023/01/24 04:32:02;;;;;;;26.25;22.52;;;;;;;-0.07;100.00;97133.75;5106164;28;24433;-70
2023/01/24 04:34:28;;;;;;;24.98;22.25;;;;;;;-0.14;100.00;97132.03;5103247;28;24437;-71
2023/01/24 04:36:55;;;;;;;27.48;22.15;;;;;;;-0.24;100.00;97132.84;5097051;28;24429;-71
2023/01/24 04:39:21;;;;;;;28.83;22.70;;;;;;;-0.20;100.00;97138.81;5100964;28;24437;-70
2023/01/24 04:41:48;;;;;;;24.33;21.70;;;;;;;-0.17;100.00;97136.28;5092866;28;24441;-70
2023/01/24 04:44:14;;;;;;;25.20;21.10;;;;;;;-0.17;100.00;97136.28;5100320;28;24456;-70
2023/01/24 04:46:41;;;;;;;26.13;22.07;;;;;;;-0.20;100.00;97134.56;5090600;28;24441;-71
2023/01/24 04:49:09;;;;;;;28.05;21.90;;;;;;;-0.07;100.00;97133.75;5102429;28;24450;-71
2023/01/24 04:51:35;;;;;;;24.77;20.60;;;;;;;-0.25;100.00;97129.47;5092685;28;24434;-70
2023/01/24 04:54:02;;;;;;;33.57;21.90;;;;;;;-0.20;100.00;97137.09;5091968;28;24799;-71
2023/01/24 04:56:28;;;;;;;24.70;21.27;;;;;;;-0.26;100.00;97139.63;5094797;28;24434;-70
2023/01/24 04:58:55;;;;;;;26.02;21.70;;;;;;;0.03;100.00;97143.91;5098638;28;24430;-70
2023/01/24 05:01:21;;;;;;;26.20;21.83;;;;;;;-0.09;100.00;97145.59;5089777;28;24438;-71
2023/01/24 05:03:47;;;;;;;23.52;21.00;;;;;;;-0.02;100.00;97146.47;5092099;28;24444;-71
2023/01/24 05:06:15;;;;;;;24.33;21.67;;;;;;;-0.06;100.00;97149.88;5105335;28;24441;-72
2023/01/24 05:08:42;;;;;;;25.07;22.10;;;;;;;-0.01;100.00;97148.16;5089744;28;24449;-71
2023/01/24 05:11:08;;;;;;;28.50;22.08;;;;;;;0.14;100.00;97150.72;5088741;28;24433;-72
2023/01/24 05:13:35;;;;;;;26.60;22.08;;;;;;;0.15;100.00;97157.53;5089498;28;24434;-71
2023/01/24 05:16:01;;;;;;;24.80;21.95;;;;;;;0.21;100.00;97156.66;5106896;28;24514;-71
2023/01/24 05:18:27;;;;;;;31.63;23.30;;;;;;;0.20;100.00;97158.38;5097124;28;24434;-71
2023/01/24 05:20:54;;;;;;;27.45;23.00;;;;;;;0.04;100.00;97156.66;5090171;28;25010;-71
2023/01/24 05:23:22;;;;;;;26.20;22.83;;;;;;;0.18;100.00;97156.66;5094565;28;24440;-71
2023/01/24 05:25:48;;;;;;;32.13;22.25;;;;;;;0.05;100.00;97160.06;5095939;28;25010;-71
2023/01/24 05:28:15;;;;;;;27.13;22.55;;;;;;;0.09;100.00;97162.59;5089178;28;24469;-71
2023/01/24 05:30:41;;;;;;;26.20;22.40;;;;;;;-0.01;100.00;97169.38;5090562;28;24443;-71
2023/01/24 05:33:07;;;;;;;29.52;22.92;;;;;;;0.01;100.00;97160.91;5087956;28;24525;-70
2023/01/24 05:35:34;;;;;;;28.40;23.17;;;;;;;-0.12;100.00;97165.97;5089887;28;24441;-71
2023/01/24 05:38:00;;;;;;;25.52;22.25;;;;;;;-0.12;100.00;97167.66;5087893;28;24434;-71
2023/01/24 05:40:28;;;;;;;28.38;23.17;;;;;;;-0.01;100.00;97174.47;5096622;28;24450;-73
2023/01/24 05:42:55;;;;;;;30.67;23.58;;;;;;;-0.06;100.00;97170.25;5095019;28;24445;-72
2023/01/24 05:45:21;;;;;;;27.48;22.88;;;;;;;0.12;100.00;97171.97;5098275;28;24449;-73
2023/01/24 05:47:48;;;;;;;30.00;23.42;;;;;;;-0.12;100.00;97177.84;5100721;28;24441;-71
2023/01/24 05:50:14;;;;;;;28.02;23.25;;;;;;;0.12;100.00;97183.00;5096398;28;24442;-71
2023/01/24 05:52:41;;;;;;;28.70;23.63;;;;;;;-0.12;100.00;97178.69;5089068;28;24442;-70
2023/01/24 05:55:08;;;;;;;32.92;23.70;;;;;;;0.18;100.00;97177.88;5093942;28;24433;-73
2023/01/24 05:57:37;;;;;;;28.13;23.92;;;;;;;0.06;100.00;97184.69;5085908;28;24995;-71
2023/01/24 06:00:05;;;;;;;25.07;22.13;;;;;;;0.07;100.00;97182.13;5086045;28;25030;-72
2023/01/24 06:02:31;;;;;;;27.25;21.83;;;;;;;-0.05;100.00;97179.56;5086647;28;24430;-72
2023/01/24 06:04:58;;;;;;;27.77;23.80;;;;;;;-0.05;100.00;97177.03;5089488;28;25007;-72
2023/01/24 06:07:24;;;;;;;31.02;23.55;;;;;;;-0.19;100.00;97177.00;5086896;28;24437;-72
2023/01/24 06:09:51;;;;;;;32.10;23.10;;;;;;;-0.20;100.00;97179.53;5086533;28;24422;-72
2023/01/24 06:12:17;;;;;;;29.85;22.38;;;;;;;0.12;100.00;97187.25;5085492;28;24438;-71
2023/01/24 06:14:45;;;;;;;26.95;23.00;;;;;;;-0.06;100.00;97186.38;5087154;28;25332;-72
2023/01/24 06:17:11;;;;;;;27.00;23.33;;;;;;;-0.20;100.00;97184.63;5101970;28;25005;-72
2023/01/24 06:19:38;;;;;;;26.45;23.65;;;;;;;0.13;100.00;97199.97;5081406;28;24441;-71
2023/01/24 06:22:15;;;;;;;27.35;23.70;;;;;;;0.15;100.00;97189.75;5080239;28;24434;-72
2023/01/24 06:24:42;;;;;;;30.40;23.92;;;;;;;-0.01;100.00;97191.47;5088455;28;24437;-71
2023/01/24 06:27:09;;;;;;;27.05;24.00;;;;;;;-0.01;100.00;97192.31;5090562;28;24828;-72
2023/01/24 06:29:36;;;;;;;28.27;24.25;;;;;;;-0.13;100.00;97192.28;5093208;28;24461;-72
2023/01/24 06:32:20;;;;;;;33.10;24.42;;;;;;;0.08;100.00;97191.47;5096053;28;24445;-72
2023/01/24 06:35:08;;;;;;;27.02;23.98;;;;;;;-0.07;100.00;97188.91;5091901;28;24444;-74
2023/01/24 06:37:40;;;;;;;28.60;25.02;;;;;;;-0.06;100.00;97201.66;5097134;28;24925;-72
2023/01/24 06:40:11;;;;;;;32.08;24.65;;;;;;;0.12;100.00;97207.63;5091288;28;24828;-74
2023/01/24 06:42:38;;;;;;;28.63;24.70;;;;;;;0.06;100.00;97203.34;5101820;28;24437;-73
2023/01/24 06:45:06;;;;;;;27.80;24.02;;;;;;;0.01;100.00;97197.41;5088161;28;24445;-73
2023/01/24 06:47:34;;;;;;;31.27;25.50;;;;;;;-0.15;100.00;97201.66;5096263;28;24434;-72
2023/01/24 06:50:00;;;;;;;33.22;25.55;;;;;;;-0.17;100.00;97205.03;5101695;28;24841;-71
2023/01/24 06:52:27;;;;;;;29.92;25.27;;;;;;;0.00;100.00;97200.81;5096495;28;24450;-73
2023/01/24 06:54:54;;;;;;;29.17;24.58;;;;;;;-0.23;100.00;97202.44;5097600;28;24454;-73
2023/01/24 06:57:20;;;;;;;30.03;25.30;;;;;;;-0.25;100.00;97208.41;5093970;28;24471;-72
2023/01/24 06:59:47;;;;;;;30.13;24.88;;;;;;;0.04;100.00;97205.06;5102044;28;24426;-73
2023/01/24 07:02:13;;;;;;;31.95;25.38;;;;;;;-0.01;100.00;97206.75;5091979;28;25026;-74
2023/01/24 07:04:41;;;;;;;31.42;24.75;;;;;;;-0.18;100.00;97216.91;5100883;28;24426;-72
2023/01/24 07:07:07;;;;;;;26.83;23.10;;;;;;;-0.09;100.00;97219.47;5093604;28;24439;-74
2023/01/24 07:09:34;;;;;;;35.50;24.77;;;;;;;0.01;100.00;97222.03;5092468;28;24458;-73
2023/01/24 07:12:00;;;;;;;31.33;25.50;;;;;;;0.04;100.00;97220.34;5099010;28;24799;-73
2023/01/24 07:14:27;;;;;;;32.85;25.08;;;;;;;-0.09;100.00;97228.81;5090023;28;25022;-73
2023/01/24 07:16:55;;;;;;;30.95;24.70;;;;;;;-0.03;100.00;97232.22;5106978;28;24533;-73
2023/01/24 07:19:23;;;;;;;35.40;24.80;;;;;;;-0.04;100.00;97229.66;5088066;28;24504;-73
2023/01/24 07:21:53;;;;;;;33.53;24.70;;;;;;;-0.10;100.00;97234.75;5107551;28;24437;-74
2023/01/24 07:24:23;;;;;;;30.63;25.40;;;;;;;-0.18;100.00;97233.88;5089795;28;24442;-74
2023/01/24 07:26:50;;;;;;;30.98;25.20;;;;;;;-0.17;100.00;97233.03;5098853;28;24433;-72
2023/01/24 07:29:17;;;;;;;31.08;25.20;;;;;;;-0.12;100.00;97234.72;5095411;28;24813;-72
2023/01/24 07:31:43;;;;;;;34.72;24.65;;;;;;;-0.02;100.00;97243.25;5100448;28;24428;-72
2023/01/24 07:34:10;;;;;;;34.17;25.50;;;;;;;0.01;100.00;97244.97;5103357;28;24434;-72
2023/01/24 07:36:36;;;;;;;29.25;22.42;;;;;;;-0.12;100.00;97250.00;5097998;28;24441;-72
2023/01/24 07:39:04;;;;;;;33.72;24.75;;;;;;;-0.10;100.00;97250.88;5102447;28;24430;-72
2023/01/24 07:41:31;;;;;;;29.03;25.33;;;;;;;0.00;100.00;97254.31;5104570;28;24889;-72
2023/01/24 07:43:57;;;;;;;31.30;25.10;;;;;;;0.06;100.00;97258.56;5105271;28;24442;-73
2023/01/24 07:46:24;;;;;;;30.55;26.00;;;;;;;0.15;100.00;97259.44;5101375;28;24434;-73
2023/01/24 07:48:50;;;;;;;28.60;23.75;;;;;;;0.06;100.00;97263.66;5078274;28;24445;-73
2023/01/24 07:51:17;;;;;;;29.98;24.95;;;;;;;0.04;100.00;97265.31;5097554;28;24465;-74
2023/01/24 07:53:43;;;;;;;32.25;24.92;;;;;;;-0.14;100.00;97255.97;5097272;28;24516;-72
2023/01/24 07:56:11;;;;;;;31.17;24.83;;;;;;;0.18;100.00;97264.50;5092586;28;24441;-72
2023/01/24 07:58:38;;;;;;;28.13;25.08;;;;;;;0.40;100.00;97269.63;5088765;28;24976;-73
2023/01/24 08:01:04;;;;;;;29.30;24.67;;;;;;;0.19;100.00;97273.03;5097488;28;24441;-72
2023/01/24 08:03:31;;;;;;;32.08;23.80;;;;;;;0.08;100.00;97275.53;5103844;28;25125;-72
2023/01/24 08:05:57;;;;;;;36.70;25.27;;;;;;;-0.03;100.00;97274.66;5105299;28;25039;-73
2023/01/24 08:08:24;;;;;;;31.92;24.15;;;;;;;-0.10;100.00;97283.13;5104751;28;24807;-73
2023/01/24 08:10:50;;;;;;;33.92;24.15;;;;;;;0.18;100.00;97282.34;5102141;28;24440;-72
2023/01/24 08:13:18;;;;;;;30.67;24.23;;;;;;;-0.03;100.00;97280.59;5096973;28;24449;-72
2023/01/24 08:15:45;;;;;;;26.97;23.23;;;;;;;-0.23;100.00;97278.84;5100472;28;24437;-72
2023/01/24 08:18:11;;;;;;;27.37;23.17;;;;;;;-0.06;100.00;97288.22;5094812;28;24438;-72
2023/01/24 08:20:38;;;;;;;29.08;22.98;;;;;;;0.17;100.00;97290.00;5102543;28;24433;-73
2023/01/24 08:23:04;;;;;;;29.00;22.52;;;;;;;-0.08;100.00;97294.16;5098740;28;24445;-72
2023/01/24 08:25:31;;;;;;;28.65;22.38;;;;;;;-0.08;100.00;97289.91;5095533;28;24445;-71
2023/01/24 08:27:58;;;;;;;27.45;22.60;;;;;;;-0.11;100.00;97295.03;5093597;28;24999;-73
2023/01/24 08:30:26;;;;;;;26.90;22.17;;;;;;;0.16;100.00;97296.78;5108320;28;24457;-71
2023/01/24 08:32:59;;;;;;;29.15;22.55;;;;;;;0.02;100.00;97295.91;5093057;28;24449;-72
2023/01/24 08:35:26;;;;;;;28.40;23.60;;;;;;;0.19;100.00;97298.50;5100265;28;24422;-72
2023/01/24 08:37:52;;;;;;;31.73;23.00;;;;;;;0.29;100.00;97302.75;5099857;28;24437;-72
2023/01/24 08:40:19;;;;;;;28.63;23.05;;;;;;;0.25;100.00;97313.78;5101913;28;24438;-72
2023/01/24 08:42:45;;;;;;;29.50;23.95;;;;;;;0.29;100.00;97307.00;5102895;28;24470;-72
2023/01/24 08:45:12;;;;;;;30.23;24.42;;;;;;;0.10;100.00;97313.75;5096999;28;24434;-72
2023/01/24 08:47:40;;;;;;;26.55;23.05;;;;;;;0.14;100.00;97313.75;5104889;28;24438;-72
2023/01/24 08:50:08;;;;;;;36.20;24.33;;;;;;;0.33;100.00;97318.91;5096299;28;24461;-72
2023/01/24 08:52:34;;;;;;;28.42;22.95;;;;;;;0.29;100.00;97320.59;5095932;28;24441;-72
2023/01/24 08:55:01;;;;;;;27.35;23.67;;;;;;;0.22;100.00;97322.28;5102522;28;24437;-72
2023/01/24 08:57:27;;;;;;;26.27;22.57;;;;;;;-0.04;100.00;97323.88;5097345;28;24537;-72
2023/01/24 08:59:54;;;;;;;30.85;22.98;;;;;;;0.05;100.00;97316.28;5107770;28;24938;-72
2023/01/24 09:02:20;;;;;;;27.80;23.33;;;;;;;0.17;100.00;97320.56;5094307;28;24970;-72
2023/01/24 09:04:48;;;;;;;35.97;24.35;;;;;;;0.05;100.00;97321.38;5107988;28;25026;-71
2023/01/24 09:07:14;;;;;;;29.33;24.05;;;;;;;0.08;100.00;97316.31;5100192;28;24870;-71
2023/01/24 09:09:41;;;;;;;34.27;24.60;;;;;;;-0.04;100.00;97314.56;5101440;28;24457;-73
2023/01/24 09:12:07;;;;;;;29.65;24.52;;;;;;;0.04;100.00;97322.25;5093424;28;24434;-72
2023/01/24 09:14:34;;;;;;;29.98;23.38;;;;;;;0.19;100.00;97316.34;5095035;28;24443;-70
2023/01/24 09:17:00;;;;;;;33.38;24.27;;;;;;;0.12;100.00;97330.75;5089752;28;24804;-73
2023/01/24 09:19:27;;;;;;;27.88;22.30;;;;;;;0.24;100.00;97325.69;5088816;28;24442;-73
2023/01/24 09:21:56;;;;;;;32.80;25.42;;;;;;;0.04;100.00;97331.56;5106662;28;24438;-72
2023/01/24 09:24:23;;;;;;;31.15;24.33;;;;;;;0.16;100.00;97327.38;5101159;28;24442;-72
2023/01/24 09:26:49;;;;;;;31.83;24.13;;;;;;;0.13;100.00;97322.25;5088569;28;24914;-72
2023/01/24 09:29:16;;;;;;;34.10;23.85;;;;;;;0.08;100.00;97323.09;5090342;28;24461;-72
2023/01/24 09:31:42;;;;;;;29.02;23.35;;;;;;;0.21;100.00;97323.13;5092756;28;24441;-72
2023/01/24 09:34:09;;;;;;;36.40;23.20;;;;;;;0.17;100.00;97330.75;5103039;28;24441;-73
2023/01/24 09:36:35;;;;;;;30.60;23.58;;;;;;;0.16;100.00;97329.91;5098648;28;24433;-75
2023/01/24 09:39:03;;;;;;;31.33;24.05;;;;;;;0.32;100.00;97340.16;5102910;28;24449;-74
2023/01/24 09:41:43;;;;;;;29.92;23.48;;;;;;;0.32;100.00;97337.59;5091793;28;24812;-75
2023/01/24 09:44:17;;;;;;;29.80;23.85;;;;;;;0.46;100.00;97333.38;5097581;28;24434;-74
2023/01/24 09:46:46;;;;;;;30.13;23.98;;;;;;;0.47;100.00;97335.06;5099171;28;24433;-75
2023/01/24 09:49:18;;;;;;;29.60;23.50;;;;;;;0.47;100.00;97343.56;5102543;28;24832;-74
2023/01/24 09:51:48;;;;;;;32.53;24.27;;;;;;;0.14;100.00;97336.69;5094231;28;24789;-74
2023/01/24 09:54:32;;;;;;;32.67;24.00;;;;;;;0.25;100.00;97336.72;5095884;28;24797;-75
2023/01/24 09:56:58;;;;;;;29.10;23.08;;;;;;;0.35;100.00;97335.91;5090719;28;24427;-75
2023/01/24 09:59:36;;;;;;;34.63;24.15;;;;;;;0.24;100.00;97338.44;5100305;28;24437;-74
2023/01/24 10:02:13;;;;;;;27.55;23.60;;;;;;;0.50;100.00;97344.44;5093007;28;24446;-74
2023/01/24 10:04:40;;;;;;;30.75;23.77;;;;;;;0.32;100.00;97335.91;5097882;28;24429;-74
2023/01/24 10:07:26;;;;;;;30.42;24.35;;;;;;;0.17;100.00;97336.69;5100505;28;24434;-72
2023/01/24 10:10:03;;;;;;;29.40;22.85;;;;;;;0.24;100.00;97335.03;5082558;28;24457;-73
2023/01/24 10:12:43;;;;;;;32.93;23.37;;;;;;;0.42;100.00;97339.31;5095563;28;24521;-72
2023/01/24 10:15:32;;;;;;;29.38;23.42;;;;;;;0.35;100.00;97342.72;5083944;28;24796;-73
2023/01/24 10:18:11;;;;;;;27.73;23.63;;;;;;;0.47;100.00;97342.72;5092427;28;24492;-72
2023/01/24 10:20:49;;;;;;;30.35;23.27;;;;;;;0.41;100.00;97346.13;5094012;28;24434;-72
2023/01/24 10:23:18;;;;;;;30.30;24.35;;;;;;;0.44;100.00;97341.00;5098670;28;24460;-72
2023/01/24 10:25:57;;;;;;;31.53;24.10;;;;;;;0.33;100.00;97344.38;5090799;28;24468;-72
2023/01/24 10:28:28;;;;;;;33.25;23.65;;;;;;;0.33;100.00;97344.38;5098377;28;24468;-72
2023/01/24 10:31:01;;;;;;;33.70;22.48;;;;;;;0.40;100.00;97341.84;5090772;28;24449;-72
2023/01/24 10:33:32;;;;;;;34.85;24.25;;;;;;;0.40;100.00;97343.56;5094101;28;24482;-72
2023/01/24 10:36:03;;;;;;;31.55;23.77;;;;;;;0.41;100.00;97338.47;5098860;28;24437;-73
2023/01/24 10:38:29;;;;;;;29.73;23.47;;;;;;;0.51;100.00;97331.69;5094275;28;24433;-73
2023/01/24 10:41:14;;;;;;;29.48;23.67;;;;;;;0.25;100.00;97334.19;5102066;28;25051;-70
2023/01/24 10:43:41;;;;;;;31.17;22.83;;;;;;;0.40;100.00;97335.91;5099748;28;24441;-72
2023/01/24 10:46:20;;;;;;;31.90;22.70;;;;;;;0.46;100.00;97333.38;5093312;28;24437;-72
2023/01/24 10:48:50;;;;;;;25.50;21.80;;;;;;;0.33;100.00;97324.84;5102418;28;24432;-72
2023/01/24 10:51:18;;;;;;;25.55;20.80;;;;;;;0.37;100.00;97328.25;5094944;28;24441;-72
2023/01/24 10:53:46;;;;;;;26.63;20.90;;;;;;;0.58;100.00;97322.34;5093451;28;24441;-72
2023/01/24 10:56:15;;;;;;;28.60;20.88;;;;;;;0.65;100.00;97327.47;5095108;28;24446;-71
2023/01/24 10:58:54;;;;;;;25.95;21.17;;;;;;;0.47;100.00;97324.88;5096157;28;24438;-70
2023/01/24 11:01:23;;;;;;;31.65;23.67;;;;;;;0.23;100.00;97324.00;5091994;28;24434;-71
2023/01/24 11:03:52;;;;;;;26.67;20.45;;;;;;;0.52;100.00;97329.97;5095033;28;24784;-70
2023/01/24 11:06:32;;;;;;;28.13;20.90;;;;;;;0.49;100.00;97325.75;5099415;28;24445;-71
2023/01/24 11:09:03;;;;;;;29.00;21.70;;;;;;;0.66;100.00;97320.66;5089257;28;24437;-70
2023/01/24 11:11:33;;;;;;;32.03;21.67;;;;;;;0.53;100.00;97324.06;5100611;28;24556;-70
2023/01/24 11:14:02;;;;;;;21.77;18.92;;;;;;;0.47;100.00;97320.63;5083694;28;24446;-70
2023/01/24 11:16:33;;;;;;;25.95;20.75;;;;;;;0.59;100.00;97324.88;5099375;28;24429;-70
2023/01/24 11:19:02;;;;;;;26.42;21.13;;;;;;;0.36;100.00;97321.47;5093203;28;24437;-70
2023/01/24 11:21:30;;;;;;;24.05;19.67;;;;;;;0.36;100.00;97317.22;5099971;28;24983;-70
2023/01/24 11:24:02;;;;;;;25.63;20.02;;;;;;;0.55;100.00;97313.00;5103958;28;24441;-70
2023/01/24 11:26:32;;;;;;;27.02;21.60;;;;;;;0.54;100.00;97323.19;5096849;28;24445;-70
2023/01/24 11:29:01;;;;;;;24.83;19.45;;;;;;;0.51;100.00;97318.94;5097196;28;24441;-71
2023/01/24 11:31:32;;;;;;;25.85;20.13;;;;;;;0.29;100.00;97312.94;5100858;28;24462;-71
2023/01/24 11:34:17;;;;;;;26.58;20.58;;;;;;;0.41;100.00;97314.69;5087742;28;25088;-70
2023/01/24 11:36:59;;;;;;;22.95;19.63;;;;;;;0.35;100.00;97310.41;5099019;28;24434;-70
2023/01/24 11:39:36;;;;;;;25.00;19.85;;;;;;;0.48;100.00;97308.72;5096665;28;24605;-71
2023/01/24 11:42:10;;;;;;;26.48;19.83;;;;;;;0.37;100.00;97307.84;5100958;28;24479;-70
2023/01/24 11:45:09;;;;;;;26.00;19.45;;;;;;;0.50;100.00;97303.66;5098946;28;24773;-70
2023/01/24 11:47:41;;;;;;;25.13;20.35;;;;;;;0.44;100.00;97312.97;5090460;28;24440;-70
2023/01/24 11:50:27;;;;;;;27.85;20.55;;;;;;;0.35;100.00;97302.78;5097988;28;24806;-70
2023/01/24 11:53:08;;;;;;;25.75;19.80;;;;;;;0.55;100.00;97305.34;5095732;28;24461;-70
2023/01/24 11:55:42;;;;;;;23.13;19.17;;;;;;;0.64;100.00;97300.28;5101061;28;24438;-71
2023/01/24 11:58:25;;;;;;;23.17;18.50;;;;;;;0.53;100.00;97296.84;5090013;28;24802;-70
2023/01/24 12:01:00;;;;;;;27.70;19.90;;;;;;;0.86;100.00;97297.72;5084956;28;25009;-71